Time;durP1;ratioP1;P1;durP2;ratioP2;P2;SDS_P1;SDS_P2;PMS_P1;PMS_P2;Temp;Humidity;BMP_temperature;BMP_pressure;BME280_temperature;BME280_humidity;BME280_pressure;Samples;Min_cycle;Max_cycle;Signal;HPM_P1;HPM_P2
2022/07/12 00:01:06;;;;;;;1.93;1.87;;;16.60;97.30;;;;;;5075836;28;20649;-83
2022/07/12 00:03:33;;;;;;;1.30;1.20;;;16.60;97.30;;;;;;5073820;28;20424;-84
2022/07/12 00:05:58;;;;;;;2.43;1.67;;;16.60;97.30;;;;;;5073590;28;20237;-83
2022/07/12 00:08:24;;;;;;;1.80;1.70;;;16.50;97.30;;;;;;5073623;28;20466;-84
2022/07/12 00:10:50;;;;;;;1.63;1.53;;;16.50;97.30;;;;;;5074216;28;20167;-84
2022/07/12 00:13:16;;;;;;;1.90;1.43;;;16.50;97.30;;;;;;5074281;28;20202;-83
2022/07/12 00:15:42;;;;;;;3.50;1.67;;;16.50;97.30;;;;;;5074122;28;20218;-83
2022/07/12 00:18:09;;;;;;;1.37;1.27;;;16.50;97.30;;;;;;5072975;28;20446;-83
2022/07/12 00:20:35;;;;;;;3.10;2.40;;;16.50;97.30;;;;;;5073890;28;20417;-84
2022/07/12 00:23:01;;;;;;;1.47;1.30;;;16.50;97.30;;;;;;5075355;28;20424;-83
2022/07/12 00:25:27;;;;;;;2.23;1.50;;;16.50;97.30;;;;;;5075852;28;20457;-84
2022/07/12 00:27:52;;;;;;;1.80;1.43;;;16.40;97.30;;;;;;5073681;28;20256;-83
2022/07/12 00:30:18;;;;;;;1.90;1.63;;;16.40;97.30;;;;;;5074279;28;20267;-83
2022/07/12 00:32:44;;;;;;;1.20;1.13;;;16.40;97.30;;;;;;5073568;28;20255;-82
2022/07/12 00:35:10;;;;;;;1.70;1.60;;;16.40;97.30;;;;;;5074399;28;20449;-83
2022/07/12 00:37:36;;;;;;;1.47;1.37;;;16.40;97.30;;;;;;5073821;28;20676;-83
2022/07/12 00:40:05;;;;;;;1.47;1.37;;;16.30;97.30;;;;;;5074468;28;20470;-83
2022/07/12 00:42:32;;;;;;;2.07;1.50;;;16.30;97.30;;;;;;5074448;28;20258;-83
2022/07/12 00:44:58;;;;;;;1.13;1.00;;;16.30;97.30;;;;;;5074611;28;20975;-83
2022/07/12 00:47:44;;;;;;;1.60;1.50;;;16.30;97.30;;;;;;5074131;28;20425;-83
2022/07/12 00:50:16;;;;;;;1.67;1.57;;;16.30;97.30;;;;;;5073930;28;20436;-82
2022/07/12 00:52:43;;;;;;;1.77;1.63;;;16.30;97.30;;;;;;5073506;28;20490;-83
2022/07/12 00:55:09;;;;;;;1.60;1.40;;;16.20;97.30;;;;;;5073867;28;20425;-82
2022/07/12 00:57:36;;;;;;;1.43;1.30;;;16.20;97.30;;;;;;5072865;28;20437;-83
2022/07/12 01:00:04;;;;;;;1.50;1.50;;;16.20;97.30;;;;;;5073236;28;20413;-83
2022/07/12 01:02:30;;;;;;;1.87;1.77;;;16.20;97.30;;;;;;5072717;28;20417;-83
2022/07/12 01:04:57;;;;;;;1.30;1.20;;;16.20;97.30;;;;;;5073769;28;20464;-83
2022/07/12 01:07:24;;;;;;;3.53;2.17;;;16.10;97.30;;;;;;5073260;28;20827;-83
2022/07/12 01:09:53;;;;;;;2.13;1.97;;;16.10;97.30;;;;;;5074048;28;20493;-83
2022/07/12 01:12:18;;;;;;;2.80;2.13;;;16.10;97.30;;;;;;5073174;28;20777;-82
2022/07/12 01:14:44;;;;;;;1.73;1.63;;;16.00;97.30;;;;;;5073280;28;20428;-83
2022/07/12 01:17:11;;;;;;;2.80;1.60;;;16.00;97.30;;;;;;5073460;28;20436;-84
2022/07/12 01:19:38;;;;;;;1.57;1.47;;;16.00;97.30;;;;;;5072731;28;20447;-83
2022/07/12 01:22:10;;;;;;;1.80;1.70;;;16.00;97.30;;;;;;5073627;28;20413;-83
2022/07/12 01:24:36;;;;;;;2.20;1.53;;;16.00;97.30;;;;;;5072968;28;20515;-84
2022/07/12 01:27:04;;;;;;;1.57;1.47;;;16.00;97.30;;;;;;5072384;28;20535;-82
2022/07/12 01:29:31;;;;;;;1.67;1.57;;;16.00;97.30;;;;;;5073864;28;20421;-82
2022/07/12 01:32:24;;;;;;;1.40;1.33;;;15.90;97.30;;;;;;5074476;28;20420;-82
2022/07/12 01:34:45;;;;;;;2.00;1.53;;;15.90;97.30;;;;;;5075720;28;20429;-82
2022/07/12 01:37:13;;;;;;;2.37;2.17;;;15.90;97.30;;;;;;5073390;28;20421;-83
2022/07/12 01:39:39;;;;;;;1.40;1.30;;;15.90;97.30;;;;;;5073718;28;20444;-82
2022/07/12 01:42:05;;;;;;;1.70;1.60;;;15.90;97.30;;;;;;5073744;28;20453;-83
2022/07/12 01:44:31;;;;;;;2.37;2.17;;;15.90;97.30;;;;;;5073035;28;20211;-83
2022/07/12 01:46:58;;;;;;;1.20;1.10;;;15.80;97.30;;;;;;5072610;28;20179;-82
2022/07/12 01:49:23;;;;;;;2.53;1.73;;;15.80;97.30;;;;;;5072007;28;20418;-83
2022/07/12 01:51:49;;;;;;;2.33;1.63;;;15.70;97.30;;;;;;5073194;28;20419;-83
2022/07/12 01:54:15;;;;;;;1.10;1.00;;;15.70;97.30;;;;;;5072180;28;20183;-83
2022/07/12 01:56:41;;;;;;;1.77;1.67;;;15.70;97.30;;;;;;5071667;28;20233;-82
2022/07/12 01:59:07;;;;;;;1.67;1.67;;;15.60;97.30;;;;;;5072775;28;20195;-82
2022/07/12 02:01:33;;;;;;;1.40;1.30;;;15.60;97.30;;;;;;5073423;28;20420;-83
2022/07/12 02:04:05;;;;;;;1.23;1.13;;;15.60;97.30;;;;;;5072659;28;20914;-83
2022/07/12 02:06:32;;;;;;;2.10;1.53;;;15.60;97.30;;;;;;5072680;28;20462;-83
2022/07/12 02:08:57;;;;;;;1.77;1.67;;;15.60;97.30;;;;;;5072829;28;20472;-83
2022/07/12 02:11:23;;;;;;;1.50;1.30;;;15.60;97.30;;;;;;5056449;28;20421;-83
2022/07/12 02:13:48;;;;;;;1.93;1.73;;;15.60;97.30;;;;;;5072165;28;20187;-83
2022/07/12 02:16:14;;;;;;;1.50;1.43;;;15.50;97.30;;;;;;5072195;28;20175;-84
2022/07/12 02:18:39;;;;;;;4.60;2.13;;;15.50;97.30;;;;;;5072953;28;20256;-83
2022/07/12 02:21:05;;;;;;;1.73;1.70;;;15.50;97.30;;;;;;5072337;28;20210;-83
2022/07/12 02:23:31;;;;;;;5.53;2.07;;;15.50;97.30;;;;;;5072530;28;20541;-83
2022/07/12 02:25:56;;;;;;;1.73;1.63;;;15.50;97.30;;;;;;5072810;28;20215;-83
2022/07/12 02:28:22;;;;;;;2.33;1.70;;;15.40;97.30;;;;;;5074844;28;20206;-83
2022/07/12 02:30:47;;;;;;;2.30;2.00;;;15.40;97.30;;;;;;5077651;28;20199;-82
2022/07/12 02:33:16;;;;;;;1.60;1.50;;;15.30;97.30;;;;;;5076007;28;20182;-83
2022/07/12 02:35:42;;;;;;;2.73;1.60;;;15.30;97.30;;;;;;5075955;28;20242;-83
2022/07/12 02:38:08;;;;;;;3.73;2.80;;;15.30;97.30;;;;;;5059737;28;20442;-83
2022/07/12 02:43:18;;;;;;;4.73;1.77;;;15.30;97.30;;;;;;5078341;28;20224;-82
2022/07/12 02:45:43;;;;;;;2.10;1.80;;;15.30;97.30;;;;;;5076132;28;20481;-83
2022/07/12 02:48:12;;;;;;;2.03;1.40;;;15.30;97.30;;;;;;5076386;28;20195;-83
2022/07/12 02:50:38;;;;;;;2.50;2.23;;;15.30;97.30;;;;;;5076273;28;20172;-83
2022/07/12 02:53:07;;;;;;;4.23;2.53;;;15.30;97.30;;;;;;5076628;28;20460;-82
2022/07/12 02:55:33;;;;;;;1.40;1.30;;;15.30;97.30;;;;;;5076909;28;20433;-82
2022/07/12 02:58:00;;;;;;;1.60;1.50;;;15.30;97.30;;;;;;5075420;28;20494;-83
2022/07/12 03:00:25;;;;;;;2.40;1.63;;;15.30;97.30;;;;;;5077493;28;20496;-83
2022/07/12 03:02:51;;;;;;;1.57;1.43;;;15.30;97.30;;;;;;5075794;28;20452;-84
2022/07/12 03:05:17;;;;;;;3.30;1.53;;;15.20;97.30;;;;;;5075799;28;20205;-83
2022/07/12 03:07:42;;;;;;;1.40;1.10;;;15.20;97.30;;;;;;5076700;28;20191;-83
2022/07/12 03:10:08;;;;;;;1.77;1.70;;;15.20;97.30;;;;;;5075149;28;20175;-83
2022/07/12 03:12:34;;;;;;;1.50;1.40;;;15.10;97.30;;;;;;5058675;28;20260;-82
2022/07/12 03:15:00;;;;;;;1.40;1.30;;;15.10;97.30;;;;;;5058680;28;20266;-83
2022/07/12 03:17:25;;;;;;;2.03;1.93;;;15.10;97.30;;;;;;5059177;28;21056;-83
2022/07/12 03:19:51;;;;;;;2.93;2.10;;;15.10;97.30;;;;;;5058502;28;20254;-83
2022/07/12 03:22:17;;;;;;;1.60;1.50;;;15.10;97.30;;;;;;5058404;28;20715;-83
2022/07/12 03:24:43;;;;;;;1.57;1.53;;;15.00;97.30;;;;;;5058386;28;20221;-83
2022/07/12 03:27:09;;;;;;;1.97;1.87;;;15.00;97.30;;;;;;5058486;28;20178;-82
2022/07/12 03:29:35;;;;;;;1.40;1.30;;;15.00;97.30;;;;;;5058693;28;20175;-82
2022/07/12 03:32:01;;;;;;;2.40;2.20;;;15.00;97.30;;;;;;5059017;28;20414;-83
2022/07/12 03:34:27;;;;;;;2.93;1.50;;;15.00;97.30;;;;;;5058245;28;20719;-83
2022/07/12 03:36:52;;;;;;;1.80;1.70;;;15.00;97.30;;;;;;5059152;28;20175;-83
2022/07/12 03:39:18;;;;;;;1.97;1.40;;;15.00;97.30;;;;;;5054943;28;20244;-86
2022/07/12 03:41:43;;;;;;;2.07;1.97;;;15.00;97.30;;;;;;5046343;28;20176;-86
2022/07/12 03:44:09;;;;;;;2.23;1.50;;;15.00;97.30;;;;;;5071733;28;20175;-86
2022/07/12 03:46:34;;;;;;;3.23;2.07;;;15.00;97.30;;;;;;5072232;28;20190;-85
2022/07/12 03:49:00;;;;;;;2.83;2.07;;;15.00;97.30;;;;;;5070381;28;20286;-86
2022/07/12 03:51:26;;;;;;;2.20;2.00;;;15.00;97.30;;;;;;5071870;28;20273;-86
2022/07/12 03:53:52;;;;;;;1.73;1.63;;;14.90;97.30;;;;;;5070743;28;20186;-85
2022/07/12 03:59:02;;;;;;;2.30;1.93;;;14.90;97.30;;;;;;5071928;28;20217;-86
2022/07/12 04:01:28;;;;;;;2.70;1.50;;;14.90;97.30;;;;;;5050749;28;20425;-85
2022/07/12 04:03:55;;;;;;;2.60;2.07;;;14.90;97.30;;;;;;5066091;28;20425;-85
2022/07/12 04:06:21;;;;;;;3.93;1.90;;;14.90;97.30;;;;;;5053658;28;20501;-86
2022/07/12 04:08:46;;;;;;;1.27;1.17;;;14.90;97.30;;;;;;5050967;28;20498;-85
2022/07/12 04:11:12;;;;;;;2.80;2.27;;;14.90;97.30;;;;;;5054199;28;20724;-85
2022/07/12 04:13:38;;;;;;;2.90;2.70;;;14.90;97.30;;;;;;5053562;28;20195;-86
2022/07/12 04:16:05;;;;;;;2.30;2.17;;;14.90;97.30;;;;;;5053706;28;20233;-85
2022/07/12 04:18:31;;;;;;;2.57;2.37;;;14.90;97.30;;;;;;5053260;28;20640;-86
2022/07/12 04:20:56;;;;;;;1.70;1.60;;;14.90;97.30;;;;;;5070395;28;20464;-85
2022/07/12 04:23:22;;;;;;;2.67;2.47;;;14.90;97.30;;;;;;5070090;28;20241;-85
2022/07/12 04:25:47;;;;;;;2.30;2.10;;;15.00;97.30;;;;;;5053582;28;20232;-86
2022/07/12 04:28:13;;;;;;;2.50;2.30;;;15.00;97.30;;;;;;5071020;28;20723;-85
2022/07/12 04:30:38;;;;;;;2.50;2.03;;;15.00;97.30;;;;;;5053377;28;20644;-85
2022/07/12 04:33:05;;;;;;;2.50;2.20;;;15.00;97.30;;;;;;5052565;28;20560;-85
2022/07/12 04:35:31;;;;;;;2.37;2.17;;;15.00;97.30;;;;;;5052907;28;20297;-85
2022/07/12 04:37:56;;;;;;;1.90;1.80;;;15.10;97.30;;;;;;5070306;28;20505;-86
2022/07/12 04:40:22;;;;;;;1.43;1.33;;;15.10;97.30;;;;;;5053523;28;20183;-86
2022/07/12 04:42:47;;;;;;;4.50;2.53;;;15.10;97.30;;;;;;5052744;28;20190;-85
2022/07/12 04:45:13;;;;;;;2.03;1.70;;;15.10;97.30;;;;;;5052777;28;20592;-85
2022/07/12 04:47:38;;;;;;;2.47;2.27;;;15.20;97.30;;;;;;5067520;28;20691;-86
2022/07/12 04:50:08;;;;;;;2.60;2.03;;;15.20;97.30;;;;;;5057911;28;20179;-86
2022/07/12 04:52:36;;;;;;;3.43;2.27;;;15.20;97.30;;;;;;5070525;28;20179;-86
2022/07/12 04:55:03;;;;;;;2.60;2.30;;;15.30;97.30;;;;;;5069853;28;20885;-86
2022/07/12 04:57:28;;;;;;;2.37;1.47;;;15.30;97.30;;;;;;5070164;28;20943;-86
2022/07/12 04:59:54;;;;;;;3.90;2.87;;;15.30;97.30;;;;;;5068829;28;20433;-85
2022/07/12 05:02:19;;;;;;;3.30;2.17;;;15.30;97.30;;;;;;5053275;28;20670;-85
2022/07/12 05:04:45;;;;;;;2.00;1.90;;;15.30;97.30;;;;;;5053127;28;20195;-85
2022/07/12 05:07:11;;;;;;;2.80;1.70;;;15.40;97.30;;;;;;5049571;28;20187;-87
2022/07/12 05:09:37;;;;;;;1.67;1.60;;;15.40;97.30;;;;;;5069276;28;20876;-86
2022/07/12 05:12:03;;;;;;;2.83;1.90;;;15.40;97.30;;;;;;5052843;28;20180;-86
2022/07/12 05:14:28;;;;;;;1.67;1.57;;;15.40;97.30;;;;;;5052912;28;20180;-85
2022/07/12 05:16:54;;;;;;;1.83;1.57;;;15.50;97.30;;;;;;5053171;28;20494;-86
2022/07/12 05:19:19;;;;;;;1.97;1.87;;;15.50;97.30;;;;;;5069281;28;20245;-86
2022/07/12 05:21:45;;;;;;;3.00;2.53;;;15.50;97.30;;;;;;5070220;28;20183;-87
2022/07/12 05:24:11;;;;;;;1.40;1.37;;;15.50;97.30;;;;;;5052517;28;20187;-85
2022/07/12 05:26:36;;;;;;;2.03;1.80;;;15.50;97.30;;;;;;5052979;28;20417;-86
2022/07/12 05:29:02;;;;;;;1.30;1.20;;;15.60;97.30;;;;;;5049386;28;20203;-86
2022/07/12 05:31:28;;;;;;;2.80;2.40;;;15.60;97.30;;;;;;5040134;28;20174;-86
2022/07/12 05:33:54;;;;;;;1.63;1.53;;;15.60;97.30;;;;;;5053239;28;20921;-85
2022/07/12 05:36:19;;;;;;;2.30;2.07;;;15.70;97.30;;;;;;5052904;28;20190;-86
2022/07/12 05:38:45;;;;;;;2.60;1.60;;;15.70;97.30;;;;;;5069456;28;20210;-86
2022/07/12 05:41:11;;;;;;;2.80;2.07;;;15.70;97.30;;;;;;5052768;28;20191;-86
2022/07/12 05:43:36;;;;;;;5.97;2.40;;;15.80;97.30;;;;;;5051649;28;20640;-86
2022/07/12 05:46:03;;;;;;;2.40;1.73;;;15.80;97.30;;;;;;5052884;28;20668;-87
2022/07/12 05:48:28;;;;;;;1.90;1.53;;;15.90;97.30;;;;;;5050181;28;20463;-84
2022/07/12 05:50:54;;;;;;;11.23;1.60;;;15.90;97.30;;;;;;5052575;28;20970;-86
2022/07/12 05:53:22;;;;;;;1.80;1.70;;;15.90;97.30;;;;;;5052981;28;20176;-85
2022/07/12 05:55:52;;;;;;;1.57;1.47;;;16.00;97.30;;;;;;5069083;28;20232;-85
2022/07/12 05:58:19;;;;;;;1.20;1.10;;;16.00;97.30;;;;;;5038660;28;20828;-86
2022/07/12 06:00:46;;;;;;;4.50;1.47;;;16.00;97.30;;;;;;5054974;28;20421;-86
2022/07/12 06:03:13;;;;;;;6.10;2.10;;;16.10;97.30;;;;;;5055295;28;20448;-85
2022/07/12 06:05:39;;;;;;;2.80;2.43;;;16.20;97.30;;;;;;5055786;28;20449;-86
2022/07/12 06:08:04;;;;;;;1.90;1.30;;;16.20;97.30;;;;;;5055620;28;20472;-86
2022/07/12 06:10:30;;;;;;;2.60;1.33;;;16.30;97.30;;;;;;5056774;28;20645;-87
2022/07/12 06:12:56;;;;;;;2.80;1.87;;;16.40;97.30;;;;;;5073434;28;20179;-86
2022/07/12 06:15:21;;;;;;;2.47;2.33;;;16.40;97.30;;;;;;5071870;28;20179;-86
2022/07/12 06:17:48;;;;;;;2.03;1.53;;;16.40;97.30;;;;;;5055938;28;20202;-86
2022/07/12 06:20:14;;;;;;;3.90;2.33;;;16.50;97.30;;;;;;5061048;28;20257;-86
2022/07/12 06:22:39;;;;;;;1.20;1.10;;;16.50;97.30;;;;;;5071851;28;20508;-86
2022/07/12 06:25:06;;;;;;;8.63;1.93;;;16.60;97.30;;;;;;5071324;28;20206;-86
2022/07/12 06:27:31;;;;;;;2.27;2.07;;;16.60;97.30;;;;;;5055425;28;20282;-86
2022/07/12 06:29:57;;;;;;;1.27;1.17;;;16.70;97.30;;;;;;5055046;28;20451;-86
2022/07/12 06:32:23;;;;;;;3.20;2.37;;;16.80;97.30;;;;;;5055604;28;20182;-86
2022/07/12 06:34:48;;;;;;;2.70;2.00;;;16.80;97.30;;;;;;5072373;28;20182;-85
2022/07/12 06:37:14;;;;;;;7.30;3.83;;;16.90;97.30;;;;;;5055304;28;20182;-86
2022/07/12 06:39:40;;;;;;;1.60;1.50;;;17.00;97.30;;;;;;5055957;28;20185;-86
2022/07/12 06:42:06;;;;;;;5.37;2.57;;;17.00;97.30;;;;;;5056423;28;20410;-87
2022/07/12 06:44:32;;;;;;;1.60;1.47;;;17.00;97.30;;;;;;5056463;28;20264;-87
2022/07/12 06:46:59;;;;;;;1.93;1.30;;;17.10;97.30;;;;;;5052173;28;20240;-87
2022/07/12 06:49:25;;;;;;;1.83;1.73;;;17.10;97.30;;;;;;5047880;28;20428;-87
2022/07/12 06:51:51;;;;;;;3.20;1.67;;;17.20;97.30;;;;;;5056585;28;20448;-87
2022/07/12 06:54:16;;;;;;;3.23;3.10;;;17.30;97.30;;;;;;5056660;28;20418;-86
2022/07/12 06:56:42;;;;;;;8.20;1.93;;;17.30;97.30;;;;;;5072220;28;20479;-86
2022/07/12 06:59:10;;;;;;;2.83;2.33;;;17.40;97.30;;;;;;5063273;28;20254;-87
2022/07/12 07:01:36;;;;;;;4.13;3.00;;;17.40;97.30;;;;;;5040302;28;20274;-86
2022/07/12 07:04:02;;;;;;;1.40;1.30;;;17.50;97.30;;;;;;5060595;28;20414;-86
2022/07/12 07:06:28;;;;;;;1.80;1.70;;;17.60;97.30;;;;;;5071081;28;20492;-87
2022/07/12 07:08:54;;;;;;;2.60;2.40;;;17.70;97.30;;;;;;5054880;28;20465;-87
2022/07/12 07:11:19;;;;;;;3.63;2.53;;;17.70;97.30;;;;;;5071757;28;20716;-86
2022/07/12 07:13:45;;;;;;;2.23;1.53;;;17.80;97.30;;;;;;5054054;28;20559;-86
2022/07/12 07:16:11;;;;;;;4.00;2.40;;;17.90;97.30;;;;;;5055407;28;20179;-87
2022/07/12 07:18:36;;;;;;;2.00;1.77;;;17.90;97.30;;;;;;5071595;28;20229;-87
2022/07/12 07:21:02;;;;;;;1.80;1.70;;;18.00;97.30;;;;;;5055177;28;20182;-86
2022/07/12 07:23:27;;;;;;;1.27;1.20;;;18.10;97.30;;;;;;5071531;28;20609;-86
2022/07/12 07:25:53;;;;;;;3.27;2.03;;;18.10;97.30;;;;;;5071627;28;20579;-86
2022/07/12 07:28:19;;;;;;;2.27;1.80;;;18.20;97.30;;;;;;5054863;28;20191;-86
2022/07/12 07:30:54;;;;;;;1.67;1.50;;;18.30;97.30;;;;;;5051526;28;20633;-87
2022/07/12 07:33:23;;;;;;;2.50;1.53;;;18.30;97.30;;;;;;5064108;28;20409;-87
2022/07/12 07:35:50;;;;;;;3.80;2.03;;;18.40;97.30;;;;;;5050312;28;20426;-87
2022/07/12 07:38:17;;;;;;;1.73;1.53;;;18.40;97.30;;;;;;5065253;28;20536;-86
2022/07/12 07:40:42;;;;;;;2.60;2.43;;;18.50;97.30;;;;;;5071253;28;20934;-87
2022/07/12 07:43:13;;;;;;;1.80;1.60;;;18.60;97.30;;;;;;5055106;28;20417;-87
2022/07/12 07:45:38;;;;;;;2.37;2.17;;;18.70;97.30;;;;;;5054457;28;20194;-86
2022/07/12 07:48:04;;;;;;;1.97;1.23;;;18.80;97.30;;;;;;5054344;28;20503;-86
2022/07/12 07:50:30;;;;;;;1.53;1.47;;;18.90;97.30;;;;;;5054316;28;20171;-86
2022/07/12 07:52:56;;;;;;;1.80;1.70;;;18.90;97.30;;;;;;5071266;28;20171;-86
2022/07/12 07:55:21;;;;;;;1.30;1.20;;;19.00;97.00;;;;;;5050867;28;20194;-86
2022/07/12 07:57:47;;;;;;;1.60;1.57;;;19.10;96.50;;;;;;5063233;28;20452;-87
2022/07/12 08:00:14;;;;;;;1.30;1.17;;;19.20;96.40;;;;;;5071195;28;20187;-86
2022/07/12 08:02:41;;;;;;;1.47;1.37;;;19.20;96.40;;;;;;5054640;28;20219;-87
2022/07/12 08:05:07;;;;;;;3.73;1.60;;;19.30;95.50;;;;;;5052953;28;20536;-87
2022/07/12 08:07:32;;;;;;;1.43;1.33;;;19.40;95.00;;;;;;5047554;28;20493;-86
2022/07/12 08:09:58;;;;;;;3.47;1.50;;;19.50;94.30;;;;;;5053844;28;20857;-86
2022/07/12 08:12:23;;;;;;;1.10;1.00;;;19.50;93.70;;;;;;5070903;28;20690;-86
2022/07/12 08:14:49;;;;;;;5.13;1.20;;;19.60;92.20;;;;;;5053932;28;20182;-86
2022/07/12 08:17:14;;;;;;;3.63;2.00;;;19.70;92.20;;;;;;5054317;28;20672;-86
2022/07/12 08:19:40;;;;;;;1.60;1.43;;;19.80;92.40;;;;;;5070208;28;20179;-87
2022/07/12 08:22:06;;;;;;;1.10;1.00;;;19.80;93.20;;;;;;5050476;28;20194;-87
2022/07/12 08:24:31;;;;;;;1.33;1.23;;;19.90;93.60;;;;;;5069314;28;20226;-86
2022/07/12 08:26:57;;;;;;;1.17;1.07;;;20.00;92.50;;;;;;5070206;28;20225;-87
2022/07/12 08:29:22;;;;;;;2.20;1.60;;;20.00;92.50;;;;;;5071480;28;20726;-87
2022/07/12 08:31:48;;;;;;;1.20;1.17;;;20.10;91.80;;;;;;5053624;28;20198;-87
2022/07/12 08:34:13;;;;;;;2.57;1.50;;;20.20;90.60;;;;;;5049909;28;20176;-87
2022/07/12 08:36:39;;;;;;;1.20;1.10;;;20.20;90.30;;;;;;5061360;28;20189;-86
2022/07/12 08:39:04;;;;;;;1.33;1.00;;;20.30;90.10;;;;;;5070119;28;20260;-87
2022/07/12 08:41:30;;;;;;;1.30;1.20;;;20.40;89.90;;;;;;5070328;28;20179;-87
2022/07/12 08:43:56;;;;;;;1.10;1.00;;;20.50;89.60;;;;;;5048792;28;20203;-86
2022/07/12 08:46:22;;;;;;;1.37;1.27;;;20.50;89.10;;;;;;5062241;28;20195;-86
2022/07/12 08:48:47;;;;;;;2.03;1.40;;;20.60;88.90;;;;;;5071301;28;20522;-86
2022/07/12 08:51:18;;;;;;;1.20;1.10;;;20.70;89.50;;;;;;5054427;28;20274;-87
2022/07/12 08:53:44;;;;;;;16.00;2.67;;;20.80;88.60;;;;;;5069114;28;20183;-84
2022/07/12 08:56:33;;;;;;;10.83;1.63;;;20.90;87.60;;;;;;5055145;28;20418;-87
2022/07/12 08:59:18;;;;;;;1.20;1.10;;;21.00;88.20;;;;;;5061474;28;20524;-87
2022/07/12 09:01:52;;;;;;;1.20;1.10;;;21.10;88.10;;;;;;5054812;28;20452;-87
2022/07/12 09:04:20;;;;;;;1.60;1.33;;;21.30;87.20;;;;;;5048799;28;20490;-87
2022/07/12 09:06:46;;;;;;;2.10;1.37;;;21.30;85.60;;;;;;5046857;28;20529;-87
2022/07/12 09:09:35;;;;;;;1.10;1.00;;;21.40;86.00;;;;;;5069451;28;21029;-87
2022/07/12 09:12:01;;;;;;;1.03;0.93;;;21.60;86.40;;;;;;5043242;28;20417;-87
2022/07/12 09:14:28;;;;;;;1.17;1.00;;;21.60;85.60;;;;;;5052852;28;20421;-87
2022/07/12 09:17:09;;;;;;;2.23;1.30;;;21.60;84.80;;;;;;5052315;28;20478;-87
2022/07/12 09:19:35;;;;;;;1.40;1.30;;;21.50;85.30;;;;;;5034633;28;20418;-87
2022/07/12 09:22:01;;;;;;;1.30;1.20;;;21.40;85.40;;;;;;5052784;28;20428;-87
2022/07/12 09:24:28;;;;;;;16.50;2.33;;;21.40;85.30;;;;;;5046635;28;20824;-86
2022/07/12 09:27:00;;;;;;;0.90;0.80;;;21.50;84.70;;;;;;5061190;28;20175;-87
2022/07/12 09:29:26;;;;;;;1.47;1.17;;;21.50;84.40;;;;;;5052679;28;20826;-87
2022/07/12 09:37:38;;;;;;;1.40;1.30;;;21.90;85.00;;;;;;5070239;28;21026;-87
2022/07/12 09:40:05;;;;;;;1.23;1.13;;;21.90;83.20;;;;;;5052181;28;20452;-86
2022/07/12 09:42:33;;;;;;;1.17;1.10;;;22.00;83.70;;;;;;5053117;28;20846;-87
2022/07/12 09:45:00;;;;;;;2.20;1.10;;;22.00;83.50;;;;;;5070618;28;20895;-87
2022/07/12 09:47:26;;;;;;;1.13;1.03;;;22.00;82.80;;;;;;5051677;28;21004;-87
2022/07/12 09:49:53;;;;;;;1.30;1.20;;;22.10;82.70;;;;;;5050814;28;20432;-88
2022/07/12 09:52:25;;;;;;;1.40;1.30;;;22.10;82.60;;;;;;5069685;28;20445;-87
2022/07/12 09:54:52;;;;;;;1.00;0.90;;;22.20;82.80;;;;;;5050020;28;20849;-88
2022/07/12 09:57:33;;;;;;;1.00;0.90;;;22.30;81.40;;;;;;5058800;28;20473;-87
2022/07/12 10:00:00;;;;;;;2.20;1.10;;;22.30;81.30;;;;;;5052342;28;20449;-87
2022/07/12 10:02:26;;;;;;;1.00;0.90;;;22.30;81.70;;;;;;5070630;28;20418;-87
2022/07/12 10:04:52;;;;;;;1.03;1.00;;;22.40;82.90;;;;;;5053205;28;20449;-88
2022/07/12 10:07:18;;;;;;;1.37;1.27;;;22.40;81.40;;;;;;5052928;28;20435;-87
2022/07/12 10:09:47;;;;;;;2.10;1.00;;;22.40;81.60;;;;;;5051955;28;20552;-87
2022/07/12 10:12:16;;;;;;;1.43;1.17;;;22.40;81.00;;;;;;5051632;28;20818;-87
2022/07/12 10:14:43;;;;;;;1.00;0.90;;;22.40;80.60;;;;;;5038064;28;20429;-85
2022/07/12 10:17:10;;;;;;;1.00;0.90;;;22.40;81.50;;;;;;5068769;28;20466;-85
2022/07/12 10:19:36;;;;;;;0.93;0.87;;;22.40;80.90;;;;;;5051902;28;20476;-86
2022/07/12 10:22:07;;;;;;;2.60;1.20;;;22.50;80.90;;;;;;5051989;28;20813;-85
2022/07/12 10:24:32;;;;;;;0.80;0.80;;;22.70;80.20;;;;;;5047509;28;20517;-85
2022/07/12 10:27:10;;;;;;;0.97;0.97;;;22.90;81.10;;;;;;5046134;28;20504;-85
2022/07/12 10:29:36;;;;;;;0.70;0.70;;;23.00;80.80;;;;;;5057738;28;20176;-87
2022/07/12 10:32:24;;;;;;;1.23;1.13;;;23.10;80.00;;;;;;5064821;28;20418;-86
2022/07/12 10:34:58;;;;;;;1.20;1.20;;;23.30;79.90;;;;;;5050298;28;20179;-85
2022/07/12 10:37:24;;;;;;;0.97;0.87;;;23.30;79.00;;;;;;5038378;28;20484;-86
2022/07/12 10:40:16;;;;;;;1.00;1.00;;;23.30;78.30;;;;;;5049607;28;20414;-86
2022/07/12 10:43:00;;;;;;;0.80;0.80;;;23.40;78.20;;;;;;5057789;28;20183;-86
2022/07/12 10:45:36;;;;;;;1.57;1.10;;;23.40;77.80;;;;;;5070973;28;20469;-84
2022/07/12 10:48:22;;;;;;;1.00;0.90;;;23.40;77.90;;;;;;5052888;28;20437;-84
2022/07/12 10:50:57;;;;;;;1.23;1.13;;;23.50;76.60;;;;;;5056361;28;20516;-85
2022/07/12 10:53:26;;;;;;;1.20;1.10;;;23.60;76.10;;;;;;5058937;28;20817;-84
2022/07/12 10:56:06;;;;;;;1.73;1.53;;;23.70;75.90;;;;;;5057810;28;20444;-84
2022/07/12 10:58:42;;;;;;;1.20;1.10;;;23.80;76.30;;;;;;5055713;28;20847;-85
2022/07/12 11:01:17;;;;;;;1.13;1.03;;;23.80;76.00;;;;;;5059700;28;20421;-84
2022/07/12 11:03:43;;;;;;;1.03;1.00;;;23.90;75.50;;;;;;5060456;28;20437;-84
2022/07/12 11:06:27;;;;;;;1.10;1.00;;;23.80;73.50;;;;;;5060084;28;20465;-83
2022/07/12 11:09:00;;;;;;;1.40;1.30;;;23.90;74.40;;;;;;5075762;28;20505;-85
2022/07/12 11:11:29;;;;;;;1.50;1.40;;;23.90;75.60;;;;;;5056417;28;20426;-84
2022/07/12 11:13:56;;;;;;;1.20;1.10;;;23.90;75.80;;;;;;5052085;28;20466;-82
2022/07/12 11:16:23;;;;;;;1.80;1.43;;;23.90;76.40;;;;;;5059587;28;20432;-85
2022/07/12 11:18:50;;;;;;;1.23;1.13;;;23.90;76.90;;;;;;5058005;28;20437;-85
2022/07/12 11:21:15;;;;;;;0.70;0.70;;;23.90;75.40;;;;;;5055560;28;20433;-85
2022/07/12 11:23:41;;;;;;;1.13;1.03;;;24.00;74.80;;;;;;5055669;28;20439;-84
2022/07/12 11:26:08;;;;;;;0.90;0.80;;;24.00;75.20;;;;;;5053566;28;20321;-85
2022/07/12 11:28:33;;;;;;;1.27;1.17;;;24.10;75.10;;;;;;5070198;28;20211;-85
2022/07/12 11:31:05;;;;;;;0.90;0.90;;;24.20;75.60;;;;;;5072467;28;20432;-86
2022/07/12 11:33:36;;;;;;;1.50;1.00;;;24.40;75.60;;;;;;5047909;28;20270;-85
2022/07/12 11:36:07;;;;;;;0.90;0.80;;;24.50;73.40;;;;;;5054397;28;20417;-86
2022/07/12 11:38:34;;;;;;;0.90;0.80;;;24.60;74.00;;;;;;5052091;28;20519;-85
2022/07/12 11:41:02;;;;;;;1.23;0.97;;;24.70;73.70;;;;;;5051315;28;20422;-86
2022/07/12 11:43:28;;;;;;;0.80;0.80;;;24.80;75.30;;;;;;5052538;28;20779;-86
2022/07/12 11:45:55;;;;;;;1.00;0.90;;;24.80;73.90;;;;;;5050954;28;20504;-86
2022/07/12 11:48:22;;;;;;;1.00;0.90;;;24.90;73.70;;;;;;5068683;28;20472;-85
2022/07/12 11:50:52;;;;;;;0.90;0.80;;;24.80;73.40;;;;;;5053478;28;20682;-86
2022/07/12 11:53:19;;;;;;;0.90;0.80;;;24.80;73.80;;;;;;5070664;28;20520;-85
2022/07/12 11:55:47;;;;;;;0.90;0.80;;;24.90;73.90;;;;;;5070541;28;20417;-86
2022/07/12 11:58:14;;;;;;;0.83;0.77;;;24.90;73.20;;;;;;5054068;28;20793;-85
2022/07/12 12:00:40;;;;;;;1.50;1.17;;;25.00;73.00;;;;;;5054130;28;20919;-86
2022/07/12 12:03:06;;;;;;;6.60;2.13;;;25.10;72.30;;;;;;5053584;28;20430;-86
2022/07/12 12:05:33;;;;;;;3.10;1.43;;;25.10;72.30;;;;;;5059441;28;20884;-86
2022/07/12 12:07:58;;;;;;;1.20;1.20;;;25.20;73.00;;;;;;5066080;28;20727;-85
2022/07/12 12:10:24;;;;;;;1.00;0.90;;;25.20;72.30;;;;;;5050025;28;20423;-85
2022/07/12 12:12:52;;;;;;;1.10;1.00;;;25.30;73.70;;;;;;5053603;28;20227;-85
2022/07/12 12:15:19;;;;;;;1.00;0.90;;;25.40;73.10;;;;;;5049946;28;20271;-85
2022/07/12 12:17:55;;;;;;;0.90;0.80;;;25.40;71.30;;;;;;5063734;28;20497;-84
2022/07/12 12:20:27;;;;;;;1.00;0.90;;;25.40;71.60;;;;;;5053389;28;20436;-85
2022/07/12 12:22:54;;;;;;;1.50;1.07;;;25.50;71.80;;;;;;5053640;28;20426;-85
2022/07/12 12:25:21;;;;;;;1.43;1.23;;;25.60;73.00;;;;;;5070468;28;20993;-86
2022/07/12 12:27:49;;;;;;;1.13;1.03;;;25.70;71.10;;;;;;5049784;28;20791;-84
2022/07/12 12:30:16;;;;;;;0.70;0.70;;;25.80;71.00;;;;;;5060600;28;20451;-86
2022/07/12 12:33:07;;;;;;;1.10;1.00;;;25.80;70.80;;;;;;5071450;28;20426;-85
2022/07/12 12:35:37;;;;;;;1.20;1.10;;;25.90;71.50;;;;;;5053340;28;20788;-85
2022/07/12 12:38:15;;;;;;;1.00;0.90;;;26.10;71.90;;;;;;5054074;28;20453;-85
2022/07/12 12:40:51;;;;;;;0.97;0.87;;;26.20;70.60;;;;;;5053743;28;20937;-86
2022/07/12 12:43:20;;;;;;;1.57;1.27;;;26.30;69.60;;;;;;5053005;28;20429;-85
2022/07/12 12:45:54;;;;;;;0.90;0.80;;;26.30;68.50;;;;;;5053041;28;20461;-86
2022/07/12 12:48:23;;;;;;;1.00;0.90;;;26.40;70.40;;;;;;5069607;28;20437;-85
2022/07/12 12:50:53;;;;;;;0.90;0.83;;;26.50;71.00;;;;;;5049557;28;20793;-87
2022/07/12 12:53:23;;;;;;;0.97;0.93;;;26.60;69.10;;;;;;5064605;28;20420;-86
2022/07/12 12:55:52;;;;;;;1.23;1.13;;;26.60;70.00;;;;;;5070553;28;20743;-85
2022/07/12 12:58:18;;;;;;;0.97;0.83;;;26.60;70.20;;;;;;5050386;28;20511;-86